sensor_id;sensor_type;location;lat;lon;timestamp;P1;durP1;ratioP1;P2;durP2;ratioP2
6342;SDS011;3204;42.698;23.298;2023-03-23T00:01:01;51.50;;;29.50;;
6342;SDS011;3204;42.698;23.298;2023-03-23T00:03:26;41.90;;;27.20;;
6342;SDS011;3204;42.698;23.298;2023-03-23T00:05:54;45.00;;;25.30;;
6342;SDS011;3204;42.698;23.298;2023-03-23T00:08:24;38.40;;;23.70;;
6342;SDS011;3204;42.698;23.298;2023-03-23T00:10:51;35.33;;;22.37;;
6342;SDS011;3204;42.698;23.298;2023-03-23T00:13:22;33.13;;;21.57;;
6342;SDS011;3204;42.698;23.298;2023-03-23T00:15:48;33.97;;;21.50;;
6342;SDS011;3204;42.698;23.298;2023-03-23T00:18:15;35.20;;;23.20;;
6342;SDS011;3204;42.698;23.298;2023-03-23T00:20:50;35.20;;;23.87;;
6342;SDS011;3204;42.698;23.298;2023-03-23T00:23:17;39.57;;;24.50;;
6342;SDS011;3204;42.698;23.298;2023-03-23T00:25:45;38.70;;;24.17;;
6342;SDS011;3204;42.698;23.298;2023-03-23T00:28:11;40.13;;;24.97;;
6342;SDS011;3204;42.698;23.298;2023-03-23T00:30:38;45.50;;;25.77;;
6342;SDS011;3204;42.698;23.298;2023-03-23T00:33:04;41.27;;;25.87;;
6342;SDS011;3204;42.698;23.298;2023-03-23T00:35:29;51.70;;;30.17;;
6342;SDS011;3204;42.698;23.298;2023-03-23T00:37:56;54.53;;;31.23;;
6342;SDS011;3204;42.698;23.298;2023-03-23T00:40:23;51.63;;;29.93;;
6342;SDS011;3204;42.698;23.298;2023-03-23T00:42:49;57.33;;;31.17;;
6342;SDS011;3204;42.698;23.298;2023-03-23T00:45:15;50.60;;;30.27;;
6342;SDS011;3204;42.698;23.298;2023-03-23T00:47:41;42.77;;;27.43;;
6342;SDS011;3204;42.698;23.298;2023-03-23T00:50:11;54.57;;;30.90;;
6342;SDS011;3204;42.698;23.298;2023-03-23T00:52:39;45.67;;;27.67;;
6342;SDS011;3204;42.698;23.298;2023-03-23T00:55:06;41.60;;;26.83;;
6342;SDS011;3204;42.698;23.298;2023-03-23T00:57:32;45.60;;;27.73;;
6342;SDS011;3204;42.698;23.298;2023-03-23T00:59:57;49.50;;;29.00;;
6342;SDS011;3204;42.698;23.298;2023-03-23T01:02:23;44.63;;;29.23;;
6342;SDS011;3204;42.698;23.298;2023-03-23T01:04:50;54.97;;;29.93;;
6342;SDS011;3204;42.698;23.298;2023-03-23T01:07:17;57.07;;;33.60;;
6342;SDS011;3204;42.698;23.298;2023-03-23T01:09:45;58.37;;;34.63;;
6342;SDS011;3204;42.698;23.298;2023-03-23T01:12:13;57.37;;;33.23;;
6342;SDS011;3204;42.698;23.298;2023-03-23T01:14:40;52.17;;;30.77;;
6342;SDS011;3204;42.698;23.298;2023-03-23T01:17:06;43.50;;;28.57;;
6342;SDS011;3204;42.698;23.298;2023-03-23T01:19:31;43.60;;;26.70;;
6342;SDS011;3204;42.698;23.298;2023-03-23T01:21:57;42.47;;;26.43;;
6342;SDS011;3204;42.698;23.298;2023-03-23T01:24:22;45.13;;;25.70;;
6342;SDS011;3204;42.698;23.298;2023-03-23T01:26:48;43.60;;;25.70;;
6342;SDS011;3204;42.698;23.298;2023-03-23T01:29:13;40.70;;;25.17;;
6342;SDS011;3204;42.698;23.298;2023-03-23T01:31:39;45.37;;;26.07;;
6342;SDS011;3204;42.698;23.298;2023-03-23T01:34:05;44.77;;;26.57;;
6342;SDS011;3204;42.698;23.298;2023-03-23T01:36:30;49.03;;;29.33;;
6342;SDS011;3204;42.698;23.298;2023-03-23T01:38:58;47.07;;;29.23;;
6342;SDS011;3204;42.698;23.298;2023-03-23T01:41:26;52.60;;;32.00;;
6342;SDS011;3204;42.698;23.298;2023-03-23T01:46:52;45.87;;;29.27;;
6342;SDS011;3204;42.698;23.298;2023-03-23T01:49:21;58.73;;;32.47;;
6342;SDS011;3204;42.698;23.298;2023-03-23T01:52:08;47.17;;;29.60;;
6342;SDS011;3204;42.698;23.298;2023-03-23T01:54:42;45.47;;;29.20;;
6342;SDS011;3204;42.698;23.298;2023-03-23T01:57:13;44.73;;;29.30;;
6342;SDS011;3204;42.698;23.298;2023-03-23T01:59:42;48.77;;;28.23;;
6342;SDS011;3204;42.698;23.298;2023-03-23T02:02:10;42.90;;;26.80;;
6342;SDS011;3204;42.698;23.298;2023-03-23T02:04:37;46.03;;;26.27;;
6342;SDS011;3204;42.698;23.298;2023-03-23T02:07:06;39.33;;;24.37;;
6342;SDS011;3204;42.698;23.298;2023-03-23T02:09:33;36.77;;;24.43;;
6342;SDS011;3204;42.698;23.298;2023-03-23T02:11:58;35.53;;;23.87;;
6342;SDS011;3204;42.698;23.298;2023-03-23T02:14:24;37.23;;;22.83;;
6342;SDS011;3204;42.698;23.298;2023-03-23T02:41:28;48.70;;;27.57;;
6342;SDS011;3204;42.698;23.298;2023-03-23T02:43:56;44.17;;;26.23;;
6342;SDS011;3204;42.698;23.298;2023-03-23T02:46:23;43.50;;;26.73;;
6342;SDS011;3204;42.698;23.298;2023-03-23T02:48:50;42.97;;;28.00;;
6342;SDS011;3204;42.698;23.298;2023-03-23T02:51:19;46.73;;;28.47;;
6342;SDS011;3204;42.698;23.298;2023-03-23T02:53:45;44.60;;;27.60;;
6342;SDS011;3204;42.698;23.298;2023-03-23T02:56:13;54.10;;;29.37;;
6342;SDS011;3204;42.698;23.298;2023-03-23T02:58:39;49.77;;;29.30;;
6342;SDS011;3204;42.698;23.298;2023-03-23T03:04:05;46.23;;;28.97;;
6342;SDS011;3204;42.698;23.298;2023-03-23T03:06:47;42.20;;;27.87;;
6342;SDS011;3204;42.698;23.298;2023-03-23T03:09:27;42.63;;;25.93;;
6342;SDS011;3204;42.698;23.298;2023-03-23T03:15:10;45.63;;;28.13;;
6342;SDS011;3204;42.698;23.298;2023-03-23T03:18:10;44.77;;;27.07;;
6342;SDS011;3204;42.698;23.298;2023-03-23T03:20:37;40.23;;;25.47;;
6342;SDS011;3204;42.698;23.298;2023-03-23T03:23:05;40.23;;;26.30;;
6342;SDS011;3204;42.698;23.298;2023-03-23T03:25:37;42.70;;;26.60;;
6342;SDS011;3204;42.698;23.298;2023-03-23T03:28:05;42.30;;;26.53;;
6342;SDS011;3204;42.698;23.298;2023-03-23T03:30:31;39.07;;;22.87;;
6342;SDS011;3204;42.698;23.298;2023-03-23T03:33:01;32.07;;;19.53;;
6342;SDS011;3204;42.698;23.298;2023-03-23T03:35:28;26.23;;;17.87;;
6342;SDS011;3204;42.698;23.298;2023-03-23T03:37:55;24.00;;;17.33;;
6342;SDS011;3204;42.698;23.298;2023-03-23T03:40:22;18.50;;;16.43;;
6342;SDS011;3204;42.698;23.298;2023-03-23T03:42:49;24.47;;;17.70;;
6342;SDS011;3204;42.698;23.298;2023-03-23T03:45:17;31.23;;;20.10;;
6342;SDS011;3204;42.698;23.298;2023-03-23T03:47:44;34.13;;;21.57;;
6342;SDS011;3204;42.698;23.298;2023-03-23T03:50:10;59.00;;;29.90;;
6342;SDS011;3204;42.698;23.298;2023-03-23T03:52:36;50.10;;;27.23;;
6342;SDS011;3204;42.698;23.298;2023-03-23T03:55:03;58.27;;;30.07;;
6342;SDS011;3204;42.698;23.298;2023-03-23T03:57:30;111.80;;;41.83;;
6342;SDS011;3204;42.698;23.298;2023-03-23T03:59:55;100.60;;;37.53;;
6342;SDS011;3204;42.698;23.298;2023-03-23T04:02:21;84.37;;;36.97;;
6342;SDS011;3204;42.698;23.298;2023-03-23T04:04:47;77.27;;;34.80;;
6342;SDS011;3204;42.698;23.298;2023-03-23T04:07:14;80.80;;;33.33;;
6342;SDS011;3204;42.698;23.298;2023-03-23T04:09:41;37.67;;;22.67;;
6342;SDS011;3204;42.698;23.298;2023-03-23T04:12:12;40.87;;;23.80;;
6342;SDS011;3204;42.698;23.298;2023-03-23T04:14:38;38.80;;;22.97;;
6342;SDS011;3204;42.698;23.298;2023-03-23T04:17:03;56.03;;;27.77;;
6342;SDS011;3204;42.698;23.298;2023-03-23T04:19:29;50.77;;;27.83;;
6342;SDS011;3204;42.698;23.298;2023-03-23T04:21:58;70.17;;;35.40;;
6342;SDS011;3204;42.698;23.298;2023-03-23T04:24:24;49.60;;;28.43;;
6342;SDS011;3204;42.698;23.298;2023-03-23T04:26:53;44.73;;;26.90;;
6342;SDS011;3204;42.698;23.298;2023-03-23T04:29:19;42.20;;;24.17;;
6342;SDS011;3204;42.698;23.298;2023-03-23T04:31:45;36.90;;;24.73;;
6342;SDS011;3204;42.698;23.298;2023-03-23T04:34:11;42.17;;;24.53;;
6342;SDS011;3204;42.698;23.298;2023-03-23T04:36:39;37.20;;;23.43;;
6342;SDS011;3204;42.698;23.298;2023-03-23T04:39:05;34.30;;;22.37;;
6342;SDS011;3204;42.698;23.298;2023-03-23T04:41:34;33.33;;;21.57;;
6342;SDS011;3204;42.698;23.298;2023-03-23T04:44:03;35.23;;;23.30;;
6342;SDS011;3204;42.698;23.298;2023-03-23T04:46:29;39.90;;;25.13;;
6342;SDS011;3204;42.698;23.298;2023-03-23T04:48:55;42.10;;;25.30;;
6342;SDS011;3204;42.698;23.298;2023-03-23T04:51:23;43.60;;;25.57;;
6342;SDS011;3204;42.698;23.298;2023-03-23T04:53:49;37.27;;;25.73;;
6342;SDS011;3204;42.698;23.298;2023-03-23T04:56:15;42.80;;;26.13;;
6342;SDS011;3204;42.698;23.298;2023-03-23T04:58:41;45.40;;;26.60;;
6342;SDS011;3204;42.698;23.298;2023-03-23T05:01:08;61.40;;;34.43;;
6342;SDS011;3204;42.698;23.298;2023-03-23T05:03:34;66.83;;;37.80;;
6342;SDS011;3204;42.698;23.298;2023-03-23T05:06:01;84.23;;;40.90;;
6342;SDS011;3204;42.698;23.298;2023-03-23T05:08:27;72.57;;;36.30;;
6342;SDS011;3204;42.698;23.298;2023-03-23T05:10:53;56.67;;;32.13;;
6342;SDS011;3204;42.698;23.298;2023-03-23T05:13:20;43.63;;;28.27;;
6342;SDS011;3204;42.698;23.298;2023-03-23T05:15:47;42.20;;;26.30;;
6342;SDS011;3204;42.698;23.298;2023-03-23T05:18:13;41.13;;;26.73;;
6342;SDS011;3204;42.698;23.298;2023-03-23T05:20:39;37.00;;;24.87;;
6342;SDS011;3204;42.698;23.298;2023-03-23T05:23:06;39.53;;;26.43;;
6342;SDS011;3204;42.698;23.298;2023-03-23T05:25:33;38.07;;;26.00;;
6342;SDS011;3204;42.698;23.298;2023-03-23T05:28:02;40.93;;;25.63;;
6342;SDS011;3204;42.698;23.298;2023-03-23T05:30:28;44.30;;;28.03;;
6342;SDS011;3204;42.698;23.298;2023-03-23T05:32:54;46.07;;;26.77;;
6342;SDS011;3204;42.698;23.298;2023-03-23T05:35:20;47.13;;;29.47;;
6342;SDS011;3204;42.698;23.298;2023-03-23T05:37:46;60.57;;;36.03;;
6342;SDS011;3204;42.698;23.298;2023-03-23T05:40:12;61.60;;;35.23;;
6342;SDS011;3204;42.698;23.298;2023-03-23T05:42:38;50.83;;;28.90;;
6342;SDS011;3204;42.698;23.298;2023-03-23T05:45:06;44.73;;;28.27;;
6342;SDS011;3204;42.698;23.298;2023-03-23T05:47:33;40.13;;;25.37;;
6342;SDS011;3204;42.698;23.298;2023-03-23T05:49:59;45.53;;;27.77;;
6342;SDS011;3204;42.698;23.298;2023-03-23T05:52:25;45.90;;;28.37;;
6342;SDS011;3204;42.698;23.298;2023-03-23T05:54:51;42.27;;;26.70;;
6342;SDS011;3204;42.698;23.298;2023-03-23T05:57:17;45.30;;;27.97;;
6342;SDS011;3204;42.698;23.298;2023-03-23T05:59:43;43.60;;;27.20;;
6342;SDS011;3204;42.698;23.298;2023-03-23T06:02:09;43.63;;;27.03;;
6342;SDS011;3204;42.698;23.298;2023-03-23T06:04:35;45.93;;;28.37;;
6342;SDS011;3204;42.698;23.298;2023-03-23T06:07:03;43.27;;;28.00;;
6342;SDS011;3204;42.698;23.298;2023-03-23T06:09:29;39.03;;;27.03;;
6342;SDS011;3204;42.698;23.298;2023-03-23T06:11:54;44.00;;;28.13;;
6342;SDS011;3204;42.698;23.298;2023-03-23T06:14:20;44.13;;;28.23;;
6342;SDS011;3204;42.698;23.298;2023-03-23T06:16:46;41.73;;;27.07;;
6342;SDS011;3204;42.698;23.298;2023-03-23T06:19:11;43.53;;;27.67;;
6342;SDS011;3204;42.698;23.298;2023-03-23T06:21:37;45.10;;;27.33;;
6342;SDS011;3204;42.698;23.298;2023-03-23T06:24:02;48.03;;;29.63;;
6342;SDS011;3204;42.698;23.298;2023-03-23T06:26:32;47.50;;;29.83;;
6342;SDS011;3204;42.698;23.298;2023-03-23T06:29:02;44.87;;;29.50;;
6342;SDS011;3204;42.698;23.298;2023-03-23T06:31:35;48.93;;;30.20;;
6342;SDS011;3204;42.698;23.298;2023-03-23T06:34:03;49.33;;;30.30;;
6342;SDS011;3204;42.698;23.298;2023-03-23T06:36:29;58.70;;;33.07;;
6342;SDS011;3204;42.698;23.298;2023-03-23T06:38:54;57.77;;;36.30;;
6342;SDS011;3204;42.698;23.298;2023-03-23T06:41:20;68.77;;;38.57;;
6342;SDS011;3204;42.698;23.298;2023-03-23T06:43:46;69.40;;;38.53;;
6342;SDS011;3204;42.698;23.298;2023-03-23T06:46:12;60.00;;;36.33;;
6342;SDS011;3204;42.698;23.298;2023-03-23T06:48:37;63.53;;;36.27;;
6342;SDS011;3204;42.698;23.298;2023-03-23T06:51:03;50.77;;;33.43;;
6342;SDS011;3204;42.698;23.298;2023-03-23T06:53:29;54.23;;;34.07;;
6342;SDS011;3204;42.698;23.298;2023-03-23T06:55:55;42.40;;;28.13;;
6342;SDS011;3204;42.698;23.298;2023-03-23T06:58:21;50.07;;;32.53;;
6342;SDS011;3204;42.698;23.298;2023-03-23T07:00:47;39.53;;;25.23;;
6342;SDS011;3204;42.698;23.298;2023-03-23T07:03:12;39.22;;;24.45;;
6342;SDS011;3204;42.698;23.298;2023-03-23T07:05:38;39.60;;;25.10;;
6342;SDS011;3204;42.698;23.298;2023-03-23T07:08:04;35.58;;;25.60;;
6342;SDS011;3204;42.698;23.298;2023-03-23T07:10:30;42.20;;;26.67;;
6342;SDS011;3204;42.698;23.298;2023-03-23T07:12:56;39.13;;;26.83;;
6342;SDS011;3204;42.698;23.298;2023-03-23T07:15:22;36.78;;;26.48;;
6342;SDS011;3204;42.698;23.298;2023-03-23T07:17:48;38.33;;;26.63;;
6342;SDS011;3204;42.698;23.298;2023-03-23T07:20:13;43.15;;;27.35;;
6342;SDS011;3204;42.698;23.298;2023-03-23T07:22:40;38.95;;;26.02;;
6342;SDS011;3204;42.698;23.298;2023-03-23T07:25:06;54.40;;;28.50;;
6342;SDS011;3204;42.698;23.298;2023-03-23T07:27:32;65.20;;;28.73;;
6342;SDS011;3204;42.698;23.298;2023-03-23T07:29:58;65.00;;;29.55;;
6342;SDS011;3204;42.698;23.298;2023-03-23T07:32:24;52.85;;;28.58;;
6342;SDS011;3204;42.698;23.298;2023-03-23T07:34:49;45.47;;;26.88;;
6342;SDS011;3204;42.698;23.298;2023-03-23T07:37:15;42.25;;;26.80;;
6342;SDS011;3204;42.698;23.298;2023-03-23T07:39:42;39.40;;;25.30;;
6342;SDS011;3204;42.698;23.298;2023-03-23T07:42:08;39.55;;;26.17;;
6342;SDS011;3204;42.698;23.298;2023-03-23T07:44:33;38.55;;;26.27;;
6342;SDS011;3204;42.698;23.298;2023-03-23T07:46:59;43.10;;;27.17;;
6342;SDS011;3204;42.698;23.298;2023-03-23T07:49:24;38.70;;;26.88;;
6342;SDS011;3204;42.698;23.298;2023-03-23T07:51:51;33.85;;;24.40;;
6342;SDS011;3204;42.698;23.298;2023-03-23T07:54:17;35.75;;;23.30;;
6342;SDS011;3204;42.698;23.298;2023-03-23T07:56:42;33.33;;;23.00;;
6342;SDS011;3204;42.698;23.298;2023-03-23T07:59:10;35.90;;;23.50;;
6342;SDS011;3204;42.698;23.298;2023-03-23T08:01:36;37.17;;;23.00;;
6342;SDS011;3204;42.698;23.298;2023-03-23T08:04:02;34.38;;;24.15;;
6342;SDS011;3204;42.698;23.298;2023-03-23T08:06:27;39.92;;;24.15;;
6342;SDS011;3204;42.698;23.298;2023-03-23T08:08:53;31.55;;;23.92;;
6342;SDS011;3204;42.698;23.298;2023-03-23T08:11:19;32.25;;;23.30;;
6342;SDS011;3204;42.698;23.298;2023-03-23T08:13:45;34.45;;;23.48;;
6342;SDS011;3204;42.698;23.298;2023-03-23T08:16:11;34.88;;;21.98;;
6342;SDS011;3204;42.698;23.298;2023-03-23T08:18:38;36.08;;;22.50;;
6342;SDS011;3204;42.698;23.298;2023-03-23T08:21:04;29.88;;;21.27;;
6342;SDS011;3204;42.698;23.298;2023-03-23T08:23:33;23.85;;;18.35;;
6342;SDS011;3204;42.698;23.298;2023-03-23T08:26:00;24.55;;;17.42;;
6342;SDS011;3204;42.698;23.298;2023-03-23T08:28:25;22.88;;;18.27;;
6342;SDS011;3204;42.698;23.298;2023-03-23T08:30:51;26.65;;;17.02;;
6342;SDS011;3204;42.698;23.298;2023-03-23T08:33:17;22.92;;;17.42;;
6342;SDS011;3204;42.698;23.298;2023-03-23T08:35:42;20.98;;;16.15;;
6342;SDS011;3204;42.698;23.298;2023-03-23T08:38:09;26.02;;;16.77;;
6342;SDS011;3204;42.698;23.298;2023-03-23T08:40:36;21.33;;;16.77;;
6342;SDS011;3204;42.698;23.298;2023-03-23T08:43:03;20.77;;;16.75;;
6342;SDS011;3204;42.698;23.298;2023-03-23T08:45:29;17.98;;;15.18;;
6342;SDS011;3204;42.698;23.298;2023-03-23T08:47:55;19.58;;;14.35;;
6342;SDS011;3204;42.698;23.298;2023-03-23T08:50:25;15.55;;;12.55;;
6342;SDS011;3204;42.698;23.298;2023-03-23T08:52:52;13.75;;;12.35;;
6342;SDS011;3204;42.698;23.298;2023-03-23T08:55:19;14.32;;;12.07;;
6342;SDS011;3204;42.698;23.298;2023-03-23T08:57:45;17.58;;;12.70;;
6342;SDS011;3204;42.698;23.298;2023-03-23T09:00:11;14.35;;;12.93;;
6342;SDS011;3204;42.698;23.298;2023-03-23T09:02:43;13.23;;;11.70;;
6342;SDS011;3204;42.698;23.298;2023-03-23T09:05:10;12.45;;;11.27;;
6342;SDS011;3204;42.698;23.298;2023-03-23T09:07:39;11.82;;;10.82;;
6342;SDS011;3204;42.698;23.298;2023-03-23T09:10:06;11.93;;;10.70;;
6342;SDS011;3204;42.698;23.298;2023-03-23T09:12:32;11.63;;;10.63;;
6342;SDS011;3204;42.698;23.298;2023-03-23T09:14:57;11.43;;;10.05;;
6342;SDS011;3204;42.698;23.298;2023-03-23T09:17:23;10.93;;;9.82;;
6342;SDS011;3204;42.698;23.298;2023-03-23T09:19:48;10.02;;;9.02;;
6342;SDS011;3204;42.698;23.298;2023-03-23T09:22:14;11.55;;;10.52;;
6342;SDS011;3204;42.698;23.298;2023-03-23T09:24:44;12.18;;;11.07;;
6342;SDS011;3204;42.698;23.298;2023-03-23T09:27:10;11.20;;;10.30;;
6342;SDS011;3204;42.698;23.298;2023-03-23T09:29:35;10.35;;;9.55;;
6342;SDS011;3204;42.698;23.298;2023-03-23T09:32:01;10.45;;;9.60;;
6342;SDS011;3204;42.698;23.298;2023-03-23T09:34:27;10.50;;;9.65;;
6342;SDS011;3204;42.698;23.298;2023-03-23T09:36:54;10.80;;;9.85;;
6342;SDS011;3204;42.698;23.298;2023-03-23T09:39:19;10.98;;;10.10;;
6342;SDS011;3204;42.698;23.298;2023-03-23T09:47:09;9.82;;;8.90;;
6342;SDS011;3204;42.698;23.298;2023-03-23T09:49:56;11.18;;;7.85;;
6342;SDS011;3204;42.698;23.298;2023-03-23T09:52:35;9.27;;;8.43;;
6342;SDS011;3204;42.698;23.298;2023-03-23T09:55:11;9.48;;;8.82;;
6342;SDS011;3204;42.698;23.298;2023-03-23T09:57:42;8.93;;;8.15;;
6342;SDS011;3204;42.698;23.298;2023-03-23T10:00:25;9.43;;;8.73;;
6342;SDS011;3204;42.698;23.298;2023-03-23T10:05:46;9.60;;;8.65;;
6342;SDS011;3204;42.698;23.298;2023-03-23T10:08:16;10.85;;;9.82;;
6342;SDS011;3204;42.698;23.298;2023-03-23T10:16:14;9.13;;;8.43;;
6342;SDS011;3204;42.698;23.298;2023-03-23T10:21:19;9.50;;;8.85;;
6342;SDS011;3204;42.698;23.298;2023-03-23T10:37:24;9.73;;;9.02;;
6342;SDS011;3204;42.698;23.298;2023-03-23T10:39:53;8.93;;;8.43;;
6342;SDS011;3204;42.698;23.298;2023-03-23T10:42:30;9.38;;;8.55;;
6342;SDS011;3204;42.698;23.298;2023-03-23T10:44:59;10.27;;;9.55;;
6342;SDS011;3204;42.698;23.298;2023-03-23T10:47:33;9.27;;;8.70;;
6342;SDS011;3204;42.698;23.298;2023-03-23T10:50:04;10.45;;;9.57;;
6342;SDS011;3204;42.698;23.298;2023-03-23T10:55:11;9.20;;;8.38;;
6342;SDS011;3204;42.698;23.298;2023-03-23T10:57:40;9.85;;;8.98;;
6342;SDS011;3204;42.698;23.298;2023-03-23T11:03:03;9.32;;;8.63;;
6342;SDS011;3204;42.698;23.298;2023-03-23T11:05:43;8.70;;;8.20;;
6342;SDS011;3204;42.698;23.298;2023-03-23T11:08:18;8.13;;;7.63;;
6342;SDS011;3204;42.698;23.298;2023-03-23T11:10:49;8.45;;;7.90;;
6342;SDS011;3204;42.698;23.298;2023-03-23T11:13:18;9.32;;;8.73;;
6342;SDS011;3204;42.698;23.298;2023-03-23T11:15:45;12.20;;;8.50;;
6342;SDS011;3204;42.698;23.298;2023-03-23T11:18:13;9.38;;;8.63;;
6342;SDS011;3204;42.698;23.298;2023-03-23T11:20:48;9.50;;;8.90;;
6342;SDS011;3204;42.698;23.298;2023-03-23T11:23:26;10.20;;;9.40;;
6342;SDS011;3204;42.698;23.298;2023-03-23T11:28:22;9.43;;;8.68;;
6342;SDS011;3204;42.698;23.298;2023-03-23T11:30:55;8.82;;;8.23;;
6342;SDS011;3204;42.698;23.298;2023-03-23T11:33:23;8.60;;;8.10;;
6342;SDS011;3204;42.698;23.298;2023-03-23T11:35:50;9.07;;;8.50;;
6342;SDS011;3204;42.698;23.298;2023-03-23T11:38:18;8.55;;;7.97;;
6342;SDS011;3204;42.698;23.298;2023-03-23T11:40:48;8.32;;;7.63;;
6342;SDS011;3204;42.698;23.298;2023-03-23T11:43:17;8.80;;;8.10;;
6342;SDS011;3204;42.698;23.298;2023-03-23T11:51:44;8.32;;;7.63;;
6342;SDS011;3204;42.698;23.298;2023-03-23T11:56:41;8.60;;;8.00;;
6342;SDS011;3204;42.698;23.298;2023-03-23T11:59:12;8.25;;;7.85;;
6342;SDS011;3204;42.698;23.298;2023-03-23T12:01:48;8.95;;;8.23;;
6342;SDS011;3204;42.698;23.298;2023-03-23T12:10:20;8.30;;;7.65;;
6342;SDS011;3204;42.698;23.298;2023-03-23T12:13:01;8.82;;;8.25;;
6342;SDS011;3204;42.698;23.298;2023-03-23T12:20:51;6.60;;;6.30;;
6342;SDS011;3204;42.698;23.298;2023-03-23T12:26:52;6.85;;;6.45;;
6342;SDS011;3204;42.698;23.298;2023-03-23T12:34:45;7.45;;;6.85;;
6342;SDS011;3204;42.698;23.298;2023-03-23T12:48:28;8.27;;;7.78;;
6342;SDS011;3204;42.698;23.298;2023-03-23T12:53:36;6.13;;;5.82;;
6342;SDS011;3204;42.698;23.298;2023-03-23T12:59:16;7.38;;;6.85;;
6342;SDS011;3204;42.698;23.298;2023-03-23T13:01:50;6.43;;;6.00;;
6342;SDS011;3204;42.698;23.298;2023-03-23T13:04:23;7.13;;;6.57;;
6342;SDS011;3204;42.698;23.298;2023-03-23T13:06:55;8.25;;;7.47;;
6342;SDS011;3204;42.698;23.298;2023-03-23T13:09:30;7.43;;;7.03;;
6342;SDS011;3204;42.698;23.298;2023-03-23T13:12:04;7.15;;;6.75;;
6342;SDS011;3204;42.698;23.298;2023-03-23T13:22:21;7.00;;;6.50;;
6342;SDS011;3204;42.698;23.298;2023-03-23T13:24:59;6.57;;;6.28;;
6342;SDS011;3204;42.698;23.298;2023-03-23T13:27:28;6.07;;;5.70;;
6342;SDS011;3204;42.698;23.298;2023-03-23T13:29:57;6.47;;;6.10;;
6342;SDS011;3204;42.698;23.298;2023-03-23T13:32:29;6.28;;;5.88;;
6342;SDS011;3204;42.698;23.298;2023-03-23T13:35:00;6.20;;;5.90;;
6342;SDS011;3204;42.698;23.298;2023-03-23T13:37:29;6.35;;;6.00;;
6342;SDS011;3204;42.698;23.298;2023-03-23T13:40:11;7.18;;;6.78;;
6342;SDS011;3204;42.698;23.298;2023-03-23T13:42:55;7.30;;;6.75;;
6342;SDS011;3204;42.698;23.298;2023-03-23T13:48:03;7.93;;;7.38;;
6342;SDS011;3204;42.698;23.298;2023-03-23T13:50:29;7.40;;;7.00;;
6342;SDS011;3204;42.698;23.298;2023-03-23T13:53:00;6.53;;;6.22;;
6342;SDS011;3204;42.698;23.298;2023-03-23T13:55:41;7.10;;;6.60;;
6342;SDS011;3204;42.698;23.298;2023-03-23T13:58:21;9.63;;;6.93;;
6342;SDS011;3204;42.698;23.298;2023-03-23T14:01:12;7.07;;;6.47;;
6342;SDS011;3204;42.698;23.298;2023-03-23T14:03:41;7.70;;;6.90;;
6342;SDS011;3204;42.698;23.298;2023-03-23T14:06:12;7.13;;;6.70;;
6342;SDS011;3204;42.698;23.298;2023-03-23T14:08:41;5.88;;;5.47;;
6342;SDS011;3204;42.698;23.298;2023-03-23T14:11:10;5.85;;;5.55;;
6342;SDS011;3204;42.698;23.298;2023-03-23T14:13:46;7.22;;;6.57;;
6342;SDS011;3204;42.698;23.298;2023-03-23T14:19:02;6.90;;;6.47;;
6342;SDS011;3204;42.698;23.298;2023-03-23T14:21:39;6.65;;;6.25;;
6342;SDS011;3204;42.698;23.298;2023-03-23T14:24:10;6.90;;;6.47;;
6342;SDS011;3204;42.698;23.298;2023-03-23T14:26:38;6.40;;;5.85;;
6342;SDS011;3204;42.698;23.298;2023-03-23T14:29:05;6.70;;;6.30;;
6342;SDS011;3204;42.698;23.298;2023-03-23T14:31:31;7.18;;;6.75;;
6342;SDS011;3204;42.698;23.298;2023-03-23T14:34:02;6.70;;;6.10;;
6342;SDS011;3204;42.698;23.298;2023-03-23T14:36:30;7.47;;;6.97;;
6342;SDS011;3204;42.698;23.298;2023-03-23T14:39:00;6.45;;;5.95;;
6342;SDS011;3204;42.698;23.298;2023-03-23T14:41:28;6.47;;;5.97;;
6342;SDS011;3204;42.698;23.298;2023-03-23T14:43:55;7.28;;;6.78;;
6342;SDS011;3204;42.698;23.298;2023-03-23T14:46:20;7.07;;;6.68;;
6342;SDS011;3204;42.698;23.298;2023-03-23T14:48:46;6.82;;;6.43;;
6342;SDS011;3204;42.698;23.298;2023-03-23T14:51:17;7.70;;;7.20;;
6342;SDS011;3204;42.698;23.298;2023-03-23T14:53:44;7.22;;;6.72;;
6342;SDS011;3204;42.698;23.298;2023-03-23T14:56:16;7.43;;;6.82;;
6342;SDS011;3204;42.698;23.298;2023-03-23T14:58:49;7.10;;;6.57;;
6342;SDS011;3204;42.698;23.298;2023-03-23T15:01:26;7.57;;;7.07;;
6342;SDS011;3204;42.698;23.298;2023-03-23T15:03:58;7.50;;;7.10;;
6342;SDS011;3204;42.698;23.298;2023-03-23T15:06:25;7.35;;;6.80;;
6342;SDS011;3204;42.698;23.298;2023-03-23T15:08:54;7.22;;;6.82;;
6342;SDS011;3204;42.698;23.298;2023-03-23T15:11:26;7.05;;;6.60;;
6342;SDS011;3204;42.698;23.298;2023-03-23T15:13:58;7.32;;;6.85;;
6342;SDS011;3204;42.698;23.298;2023-03-23T15:16:29;6.28;;;5.88;;
6342;SDS011;3204;42.698;23.298;2023-03-23T15:19:03;7.10;;;6.70;;
6342;SDS011;3204;42.698;23.298;2023-03-23T15:21:32;6.85;;;6.55;;
6342;SDS011;3204;42.698;23.298;2023-03-23T15:23:59;8.30;;;7.65;;
6342;SDS011;3204;42.698;23.298;2023-03-23T15:26:27;7.03;;;6.53;;
6342;SDS011;3204;42.698;23.298;2023-03-23T15:29:02;7.78;;;7.13;;
6342;SDS011;3204;42.698;23.298;2023-03-23T15:31:52;7.32;;;6.93;;
6342;SDS011;3204;42.698;23.298;2023-03-23T15:34:30;7.30;;;6.68;;
6342;SDS011;3204;42.698;23.298;2023-03-23T15:37:01;7.55;;;6.93;;
6342;SDS011;3204;42.698;23.298;2023-03-23T15:39:28;7.28;;;6.68;;
6342;SDS011;3204;42.698;23.298;2023-03-23T15:41:55;8.20;;;7.50;;
6342;SDS011;3204;42.698;23.298;2023-03-23T15:44:23;7.47;;;7.07;;
6342;SDS011;3204;42.698;23.298;2023-03-23T15:46:52;7.63;;;7.22;;
6342;SDS011;3204;42.698;23.298;2023-03-23T15:49:26;7.72;;;7.07;;
6342;SDS011;3204;42.698;23.298;2023-03-23T15:51:51;7.97;;;7.35;;
6342;SDS011;3204;42.698;23.298;2023-03-23T15:54:17;8.27;;;7.68;;
6342;SDS011;3204;42.698;23.298;2023-03-23T15:56:42;10.80;;;7.43;;
6342;SDS011;3204;42.698;23.298;2023-03-23T15:59:09;7.78;;;7.20;;
6342;SDS011;3204;42.698;23.298;2023-03-23T16:01:36;7.18;;;6.72;;
6342;SDS011;3204;42.698;23.298;2023-03-23T16:06:32;7.28;;;6.65;;
6342;SDS011;3204;42.698;23.298;2023-03-23T16:08:59;7.68;;;7.10;;
6342;SDS011;3204;42.698;23.298;2023-03-23T16:11:26;7.68;;;7.07;;
6342;SDS011;3204;42.698;23.298;2023-03-23T16:13:53;11.55;;;7.40;;
6342;SDS011;3204;42.698;23.298;2023-03-23T16:16:30;8.63;;;7.65;;
6342;SDS011;3204;42.698;23.298;2023-03-23T16:18:58;7.78;;;7.18;;
6342;SDS011;3204;42.698;23.298;2023-03-23T16:21:24;7.53;;;6.93;;
6342;SDS011;3204;42.698;23.298;2023-03-23T16:23:50;7.93;;;7.18;;
6342;SDS011;3204;42.698;23.298;2023-03-23T16:26:15;7.22;;;6.82;;
6342;SDS011;3204;42.698;23.298;2023-03-23T16:28:41;8.18;;;7.45;;
6342;SDS011;3204;42.698;23.298;2023-03-23T16:31:07;7.10;;;6.60;;
6342;SDS011;3204;42.698;23.298;2023-03-23T16:33:33;7.15;;;6.65;;
6342;SDS011;3204;42.698;23.298;2023-03-23T16:35:59;7.93;;;7.20;;
6342;SDS011;3204;42.698;23.298;2023-03-23T16:38:24;8.05;;;7.28;;
6342;SDS011;3204;42.698;23.298;2023-03-23T16:40:50;8.48;;;7.68;;
6342;SDS011;3204;42.698;23.298;2023-03-23T16:43:15;11.10;;;8.52;;
6342;SDS011;3204;42.698;23.298;2023-03-23T16:45:42;9.15;;;8.27;;
6342;SDS011;3204;42.698;23.298;2023-03-23T16:48:10;8.43;;;7.70;;
6342;SDS011;3204;42.698;23.298;2023-03-23T16:50:36;8.07;;;7.38;;
6342;SDS011;3204;42.698;23.298;2023-03-23T16:53:02;11.18;;;8.05;;
6342;SDS011;3204;42.698;23.298;2023-03-23T16:55:29;9.35;;;8.05;;
6342;SDS011;3204;42.698;23.298;2023-03-23T16:57:56;8.60;;;7.82;;
6342;SDS011;3204;42.698;23.298;2023-03-23T17:00:23;8.88;;;8.02;;
6342;SDS011;3204;42.698;23.298;2023-03-23T17:02:51;8.48;;;7.78;;
6342;SDS011;3204;42.698;23.298;2023-03-23T17:05:18;8.25;;;7.75;;